sensor_id;sensor_type;location;lat;lon;timestamp;temperature;humidity
5578;DHT22;2811;51.900;10.734;2023-03-14T00:01:43;12.00;99.90
5578;DHT22;2811;51.900;10.734;2023-03-14T00:04:10;11.90;99.90
5578;DHT22;2811;51.900;10.734;2023-03-14T00:06:36;11.90;99.90
5578;DHT22;2811;51.900;10.734;2023-03-14T00:09:03;12.10;99.90
5578;DHT22;2811;51.900;10.734;2023-03-14T00:11:30;12.30;99.90
5578;DHT22;2811;51.900;10.734;2023-03-14T00:13:58;12.50;99.90
5578;DHT22;2811;51.900;10.734;2023-03-14T00:16:25;12.50;99.90
5578;DHT22;2811;51.900;10.734;2023-03-14T00:18:52;12.60;99.90
5578;DHT22;2811;51.900;10.734;2023-03-14T00:21:19;12.60;99.90
5578;DHT22;2811;51.900;10.734;2023-03-14T00:23:46;12.60;99.90
5578;DHT22;2811;51.900;10.734;2023-03-14T00:26:14;12.60;99.90
5578;DHT22;2811;51.900;10.734;2023-03-14T00:28:42;12.50;99.90
5578;DHT22;2811;51.900;10.734;2023-03-14T00:31:12;12.50;99.90
5578;DHT22;2811;51.900;10.734;2023-03-14T00:33:39;12.50;99.90
5578;DHT22;2811;51.900;10.734;2023-03-14T00:36:09;12.40;99.90
5578;DHT22;2811;51.900;10.734;2023-03-14T00:38:37;12.50;99.90
5578;DHT22;2811;51.900;10.734;2023-03-14T00:41:05;12.90;99.90
5578;DHT22;2811;51.900;10.734;2023-03-14T00:43:32;12.50;99.90
5578;DHT22;2811;51.900;10.734;2023-03-14T00:45:58;12.50;99.90
5578;DHT22;2811;51.900;10.734;2023-03-14T00:48:26;12.50;99.90
5578;DHT22;2811;51.900;10.734;2023-03-14T00:50:53;12.50;99.90
5578;DHT22;2811;51.900;10.734;2023-03-14T00:53:20;12.30;99.90
5578;DHT22;2811;51.900;10.734;2023-03-14T00:55:46;12.40;99.90
5578;DHT22;2811;51.900;10.734;2023-03-14T00:58:15;12.50;99.90
5578;DHT22;2811;51.900;10.734;2023-03-14T01:00:42;12.40;99.90
5578;DHT22;2811;51.900;10.734;2023-03-14T01:03:10;12.40;99.90
5578;DHT22;2811;51.900;10.734;2023-03-14T01:05:39;12.40;99.90
5578;DHT22;2811;51.900;10.734;2023-03-14T01:08:06;12.40;99.90
5578;DHT22;2811;51.900;10.734;2023-03-14T01:10:33;12.40;99.90
5578;DHT22;2811;51.900;10.734;2023-03-14T01:13:00;12.40;99.90
5578;DHT22;2811;51.900;10.734;2023-03-14T01:15:26;12.40;99.90
5578;DHT22;2811;51.900;10.734;2023-03-14T01:17:53;12.50;99.90
5578;DHT22;2811;51.900;10.734;2023-03-14T01:20:20;12.40;99.90
5578;DHT22;2811;51.900;10.734;2023-03-14T01:22:48;12.30;99.90
5578;DHT22;2811;51.900;10.734;2023-03-14T01:25:16;12.30;99.90
5578;DHT22;2811;51.900;10.734;2023-03-14T01:27:43;12.20;99.90
5578;DHT22;2811;51.900;10.734;2023-03-14T01:30:11;12.20;99.90
5578;DHT22;2811;51.900;10.734;2023-03-14T01:32:38;12.10;99.90
5578;DHT22;2811;51.900;10.734;2023-03-14T01:35:05;12.00;99.90
5578;DHT22;2811;51.900;10.734;2023-03-14T01:37:32;12.10;99.90
5578;DHT22;2811;51.900;10.734;2023-03-14T01:40:00;12.10;99.90
5578;DHT22;2811;51.900;10.734;2023-03-14T01:42:26;12.10;99.90
5578;DHT22;2811;51.900;10.734;2023-03-14T01:44:55;12.10;99.90
5578;DHT22;2811;51.900;10.734;2023-03-14T01:47:22;12.10;99.90
5578;DHT22;2811;51.900;10.734;2023-03-14T01:49:52;12.10;99.90
5578;DHT22;2811;51.900;10.734;2023-03-14T01:52:22;12.10;99.90
5578;DHT22;2811;51.900;10.734;2023-03-14T01:54:51;12.10;99.90
5578;DHT22;2811;51.900;10.734;2023-03-14T01:57:23;12.10;99.90
5578;DHT22;2811;51.900;10.734;2023-03-14T01:59:54;12.20;99.90
5578;DHT22;2811;51.900;10.734;2023-03-14T02:02:22;12.10;99.90
5578;DHT22;2811;51.900;10.734;2023-03-14T02:04:50;12.30;99.90
5578;DHT22;2811;51.900;10.734;2023-03-14T02:07:20;12.30;99.90
5578;DHT22;2811;51.900;10.734;2023-03-14T02:09:49;12.40;99.90
5578;DHT22;2811;51.900;10.734;2023-03-14T02:12:17;12.40;99.90
5578;DHT22;2811;51.900;10.734;2023-03-14T02:14:45;12.40;99.90
5578;DHT22;2811;51.900;10.734;2023-03-14T02:17:14;12.30;99.90
5578;DHT22;2811;51.900;10.734;2023-03-14T02:20:03;12.30;99.90
5578;DHT22;2811;51.900;10.734;2023-03-14T02:22:34;12.30;99.90
5578;DHT22;2811;51.900;10.734;2023-03-14T02:25:06;12.20;99.90
5578;DHT22;2811;51.900;10.734;2023-03-14T02:27:36;12.10;99.90
5578;DHT22;2811;51.900;10.734;2023-03-14T02:30:05;12.00;99.90
5578;DHT22;2811;51.900;10.734;2023-03-14T02:32:33;12.00;99.90
5578;DHT22;2811;51.900;10.734;2023-03-14T02:35:03;12.00;99.90
5578;DHT22;2811;51.900;10.734;2023-03-14T02:37:36;12.10;99.90
5578;DHT22;2811;51.900;10.734;2023-03-14T02:40:05;12.10;99.90
5578;DHT22;2811;51.900;10.734;2023-03-14T02:42:32;12.10;99.90
5578;DHT22;2811;51.900;10.734;2023-03-14T02:48:09;12.30;99.90
5578;DHT22;2811;51.900;10.734;2023-03-14T02:50:37;12.10;99.90
5578;DHT22;2811;51.900;10.734;2023-03-14T02:53:04;12.20;99.90
5578;DHT22;2811;51.900;10.734;2023-03-14T02:55:31;12.10;99.90
5578;DHT22;2811;51.900;10.734;2023-03-14T02:57:58;12.00;99.90
5578;DHT22;2811;51.900;10.734;2023-03-14T03:00:26;12.00;99.90
5578;DHT22;2811;51.900;10.734;2023-03-14T03:02:53;11.90;99.90
5578;DHT22;2811;51.900;10.734;2023-03-14T03:05:20;12.00;99.90
5578;DHT22;2811;51.900;10.734;2023-03-14T03:07:46;12.00;99.90
5578;DHT22;2811;51.900;10.734;2023-03-14T03:10:13;12.00;99.90
5578;DHT22;2811;51.900;10.734;2023-03-14T03:12:40;11.90;99.90
5578;DHT22;2811;51.900;10.734;2023-03-14T03:15:07;11.90;99.90
5578;DHT22;2811;51.900;10.734;2023-03-14T03:17:35;11.90;99.90
5578;DHT22;2811;51.900;10.734;2023-03-14T03:20:02;11.80;99.90
5578;DHT22;2811;51.900;10.734;2023-03-14T03:22:30;11.80;99.90
5578;DHT22;2811;51.900;10.734;2023-03-14T03:24:57;11.70;99.90
5578;DHT22;2811;51.900;10.734;2023-03-14T03:27:23;11.70;99.90
5578;DHT22;2811;51.900;10.734;2023-03-14T03:29:50;11.70;99.90
5578;DHT22;2811;51.900;10.734;2023-03-14T03:32:17;11.70;99.90
5578;DHT22;2811;51.900;10.734;2023-03-14T03:34:44;11.70;99.90
5578;DHT22;2811;51.900;10.734;2023-03-14T03:37:11;11.70;99.90
5578;DHT22;2811;51.900;10.734;2023-03-14T03:39:38;11.50;99.90
5578;DHT22;2811;51.900;10.734;2023-03-14T03:42:04;11.60;99.90
5578;DHT22;2811;51.900;10.734;2023-03-14T03:44:31;11.60;99.90
5578;DHT22;2811;51.900;10.734;2023-03-14T03:46:58;11.60;99.90
5578;DHT22;2811;51.900;10.734;2023-03-14T03:49:28;11.50;99.90
5578;DHT22;2811;51.900;10.734;2023-03-14T03:51:56;11.50;99.90
5578;DHT22;2811;51.900;10.734;2023-03-14T03:54:23;11.50;99.90
5578;DHT22;2811;51.900;10.734;2023-03-14T03:56:50;11.50;99.90
5578;DHT22;2811;51.900;10.734;2023-03-14T03:59:16;11.60;99.90
5578;DHT22;2811;51.900;10.734;2023-03-14T04:01:43;11.60;99.90
5578;DHT22;2811;51.900;10.734;2023-03-14T04:04:10;11.60;99.90
5578;DHT22;2811;51.900;10.734;2023-03-14T04:06:37;11.50;99.90
5578;DHT22;2811;51.900;10.734;2023-03-14T04:09:05;11.60;99.90
5578;DHT22;2811;51.900;10.734;2023-03-14T04:11:32;11.60;99.90
5578;DHT22;2811;51.900;10.734;2023-03-14T04:13:58;11.60;99.90
5578;DHT22;2811;51.900;10.734;2023-03-14T04:16:26;11.60;99.90
5578;DHT22;2811;51.900;10.734;2023-03-14T04:18:53;11.60;99.90
5578;DHT22;2811;51.900;10.734;2023-03-14T04:21:20;11.40;99.90
5578;DHT22;2811;51.900;10.734;2023-03-14T04:23:46;11.40;99.90
5578;DHT22;2811;51.900;10.734;2023-03-14T04:26:15;11.50;99.90
5578;DHT22;2811;51.900;10.734;2023-03-14T04:28:41;11.50;99.90
5578;DHT22;2811;51.900;10.734;2023-03-14T04:31:09;11.50;99.90
5578;DHT22;2811;51.900;10.734;2023-03-14T04:33:36;11.50;99.90
5578;DHT22;2811;51.900;10.734;2023-03-14T04:36:03;11.40;99.90
5578;DHT22;2811;51.900;10.734;2023-03-14T04:38:30;11.40;99.90
5578;DHT22;2811;51.900;10.734;2023-03-14T04:40:56;11.50;99.90
5578;DHT22;2811;51.900;10.734;2023-03-14T04:43:26;11.40;99.90
5578;DHT22;2811;51.900;10.734;2023-03-14T04:45:53;11.30;99.90
5578;DHT22;2811;51.900;10.734;2023-03-14T04:48:20;11.30;99.90
5578;DHT22;2811;51.900;10.734;2023-03-14T04:50:47;11.30;99.90
5578;DHT22;2811;51.900;10.734;2023-03-14T04:53:14;11.30;99.90
5578;DHT22;2811;51.900;10.734;2023-03-14T04:55:41;11.30;99.90
5578;DHT22;2811;51.900;10.734;2023-03-14T04:58:08;11.20;99.90
5578;DHT22;2811;51.900;10.734;2023-03-14T05:00:36;11.30;99.90
5578;DHT22;2811;51.900;10.734;2023-03-14T05:03:03;11.20;99.90
5578;DHT22;2811;51.900;10.734;2023-03-14T05:05:29;11.30;99.90
5578;DHT22;2811;51.900;10.734;2023-03-14T05:07:56;11.30;99.90
5578;DHT22;2811;51.900;10.734;2023-03-14T05:10:23;11.20;99.90
5578;DHT22;2811;51.900;10.734;2023-03-14T05:12:51;11.30;99.90
5578;DHT22;2811;51.900;10.734;2023-03-14T05:15:17;11.30;99.90
5578;DHT22;2811;51.900;10.734;2023-03-14T05:17:45;11.40;99.90
5578;DHT22;2811;51.900;10.734;2023-03-14T05:20:14;11.30;99.90
5578;DHT22;2811;51.900;10.734;2023-03-14T05:22:42;11.30;99.90
5578;DHT22;2811;51.900;10.734;2023-03-14T05:25:09;11.30;99.90
5578;DHT22;2811;51.900;10.734;2023-03-14T05:27:35;11.20;99.90
5578;DHT22;2811;51.900;10.734;2023-03-14T05:30:02;11.20;99.90
5578;DHT22;2811;51.900;10.734;2023-03-14T05:32:29;11.30;99.90
5578;DHT22;2811;51.900;10.734;2023-03-14T05:34:57;11.20;99.90
5578;DHT22;2811;51.900;10.734;2023-03-14T05:37:24;11.20;99.90
5578;DHT22;2811;51.900;10.734;2023-03-14T05:39:51;11.30;99.90
5578;DHT22;2811;51.900;10.734;2023-03-14T05:42:18;11.30;99.90
5578;DHT22;2811;51.900;10.734;2023-03-14T05:44:45;11.30;99.90
5578;DHT22;2811;51.900;10.734;2023-03-14T05:47:11;11.30;99.90
5578;DHT22;2811;51.900;10.734;2023-03-14T05:49:38;11.20;99.90
5578;DHT22;2811;51.900;10.734;2023-03-14T05:52:06;11.20;99.90
5578;DHT22;2811;51.900;10.734;2023-03-14T05:54:33;11.20;99.90
5578;DHT22;2811;51.900;10.734;2023-03-14T05:56:59;11.20;99.90
5578;DHT22;2811;51.900;10.734;2023-03-14T05:59:26;11.20;99.90
5578;DHT22;2811;51.900;10.734;2023-03-14T06:01:53;11.20;99.90
5578;DHT22;2811;51.900;10.734;2023-03-14T06:04:19;11.20;99.90
5578;DHT22;2811;51.900;10.734;2023-03-14T06:06:46;11.40;99.90
5578;DHT22;2811;51.900;10.734;2023-03-14T06:09:14;11.50;99.90
5578;DHT22;2811;51.900;10.734;2023-03-14T06:11:41;11.50;99.90
5578;DHT22;2811;51.900;10.734;2023-03-14T06:14:08;11.40;99.90
5578;DHT22;2811;51.900;10.734;2023-03-14T06:16:34;11.30;99.90
5578;DHT22;2811;51.900;10.734;2023-03-14T06:19:01;11.40;99.90
5578;DHT22;2811;51.900;10.734;2023-03-14T06:21:27;11.40;99.90
5578;DHT22;2811;51.900;10.734;2023-03-14T06:23:54;11.40;99.90
5578;DHT22;2811;51.900;10.734;2023-03-14T06:26:22;11.20;99.90
5578;DHT22;2811;51.900;10.734;2023-03-14T06:28:49;11.00;99.90
5578;DHT22;2811;51.900;10.734;2023-03-14T06:31:16;10.90;99.90
5578;DHT22;2811;51.900;10.734;2023-03-14T06:33:43;10.80;99.90
5578;DHT22;2811;51.900;10.734;2023-03-14T06:36:10;10.80;99.90
5578;DHT22;2811;51.900;10.734;2023-03-14T06:38:36;10.80;99.90
5578;DHT22;2811;51.900;10.734;2023-03-14T06:41:03;10.70;99.90
5578;DHT22;2811;51.900;10.734;2023-03-14T06:43:32;10.70;99.90
5578;DHT22;2811;51.900;10.734;2023-03-14T06:45:59;10.80;99.90
5578;DHT22;2811;51.900;10.734;2023-03-14T06:48:25;10.70;99.90
5578;DHT22;2811;51.900;10.734;2023-03-14T06:50:52;10.70;99.90
5578;DHT22;2811;51.900;10.734;2023-03-14T06:53:19;10.80;99.90
5578;DHT22;2811;51.900;10.734;2023-03-14T06:55:46;10.80;99.90
5578;DHT22;2811;51.900;10.734;2023-03-14T06:58:12;11.00;99.90
5578;DHT22;2811;51.900;10.734;2023-03-14T07:00:40;11.30;99.90
5578;DHT22;2811;51.900;10.734;2023-03-14T07:03:07;11.60;99.90
5578;DHT22;2811;51.900;10.734;2023-03-14T07:05:34;11.60;99.90
5578;DHT22;2811;51.900;10.734;2023-03-14T07:08:00;11.60;99.90
5578;DHT22;2811;51.900;10.734;2023-03-14T07:10:27;11.90;99.90
5578;DHT22;2811;51.900;10.734;2023-03-14T07:12:54;11.90;99.90
5578;DHT22;2811;51.900;10.734;2023-03-14T07:15:20;12.00;99.90
5578;DHT22;2811;51.900;10.734;2023-03-14T07:17:48;12.00;99.90
5578;DHT22;2811;51.900;10.734;2023-03-14T07:20:15;11.90;99.90
5578;DHT22;2811;51.900;10.734;2023-03-14T07:22:42;11.70;99.90
5578;DHT22;2811;51.900;10.734;2023-03-14T07:25:09;11.60;99.90
5578;DHT22;2811;51.900;10.734;2023-03-14T07:27:40;11.60;99.90
5578;DHT22;2811;51.900;10.734;2023-03-14T07:30:10;11.60;99.90
5578;DHT22;2811;51.900;10.734;2023-03-14T07:32:37;11.60;99.90
5578;DHT22;2811;51.900;10.734;2023-03-14T07:35:06;11.60;99.90
5578;DHT22;2811;51.900;10.734;2023-03-14T07:37:33;11.60;99.90
5578;DHT22;2811;51.900;10.734;2023-03-14T07:40:00;11.60;99.90
5578;DHT22;2811;51.900;10.734;2023-03-14T07:42:26;11.70;99.90
5578;DHT22;2811;51.900;10.734;2023-03-14T07:44:53;11.60;99.90
5578;DHT22;2811;51.900;10.734;2023-03-14T07:47:19;11.70;99.90
5578;DHT22;2811;51.900;10.734;2023-03-14T07:49:46;11.70;99.90
5578;DHT22;2811;51.900;10.734;2023-03-14T07:52:14;11.70;99.90
5578;DHT22;2811;51.900;10.734;2023-03-14T07:54:41;11.80;99.90
5578;DHT22;2811;51.900;10.734;2023-03-14T07:57:07;11.80;99.90
5578;DHT22;2811;51.900;10.734;2023-03-14T07:59:34;11.90;99.90
5578;DHT22;2811;51.900;10.734;2023-03-14T08:02:01;11.90;99.90
5578;DHT22;2811;51.900;10.734;2023-03-14T08:04:30;11.90;99.90
5578;DHT22;2811;51.900;10.734;2023-03-14T08:06:57;12.00;99.90
5578;DHT22;2811;51.900;10.734;2023-03-14T08:09:25;12.10;99.90
5578;DHT22;2811;51.900;10.734;2023-03-14T08:11:51;12.10;99.90
5578;DHT22;2811;51.900;10.734;2023-03-14T08:14:18;12.10;99.90
5578;DHT22;2811;51.900;10.734;2023-03-14T08:16:45;12.20;99.90
5578;DHT22;2811;51.900;10.734;2023-03-14T08:19:12;12.20;99.90
5578;DHT22;2811;51.900;10.734;2023-03-14T08:21:38;12.20;99.90
5578;DHT22;2811;51.900;10.734;2023-03-14T08:24:05;12.20;99.90
5578;DHT22;2811;51.900;10.734;2023-03-14T08:26:33;12.20;99.90
5578;DHT22;2811;51.900;10.734;2023-03-14T08:29:00;12.30;99.90
5578;DHT22;2811;51.900;10.734;2023-03-14T08:31:27;12.10;99.90
5578;DHT22;2811;51.900;10.734;2023-03-14T08:33:53;12.10;99.90
5578;DHT22;2811;51.900;10.734;2023-03-14T08:36:20;12.20;99.90
5578;DHT22;2811;51.900;10.734;2023-03-14T08:38:47;12.20;99.90
5578;DHT22;2811;51.900;10.734;2023-03-14T08:41:14;12.20;99.90
5578;DHT22;2811;51.900;10.734;2023-03-14T08:43:42;12.40;99.90
5578;DHT22;2811;51.900;10.734;2023-03-14T08:46:08;12.70;99.90
5578;DHT22;2811;51.900;10.734;2023-03-14T08:48:35;13.00;99.90
5578;DHT22;2811;51.900;10.734;2023-03-14T08:51:05;13.30;99.90
5578;DHT22;2811;51.900;10.734;2023-03-14T08:53:32;13.40;99.90
5578;DHT22;2811;51.900;10.734;2023-03-14T08:55:59;13.50;99.90
5578;DHT22;2811;51.900;10.734;2023-03-14T08:58:25;13.90;99.90
5578;DHT22;2811;51.900;10.734;2023-03-14T09:00:53;13.50;99.90
5578;DHT22;2811;51.900;10.734;2023-03-14T09:03:20;13.60;99.90
5578;DHT22;2811;51.900;10.734;2023-03-14T09:05:49;13.90;99.90
5578;DHT22;2811;51.900;10.734;2023-03-14T09:08:15;13.90;99.90
5578;DHT22;2811;51.900;10.734;2023-03-14T09:10:42;13.70;99.90
5578;DHT22;2811;51.900;10.734;2023-03-14T09:13:09;13.70;99.90
5578;DHT22;2811;51.900;10.734;2023-03-14T09:15:36;13.80;99.90
5578;DHT22;2811;51.900;10.734;2023-03-14T09:18:04;13.90;99.90
5578;DHT22;2811;51.900;10.734;2023-03-14T09:20:30;13.80;99.90
5578;DHT22;2811;51.900;10.734;2023-03-14T09:22:57;13.50;99.90
5578;DHT22;2811;51.900;10.734;2023-03-14T09:25:23;13.70;99.90
5578;DHT22;2811;51.900;10.734;2023-03-14T09:27:50;14.00;99.90
5578;DHT22;2811;51.900;10.734;2023-03-14T09:30:17;14.00;99.90
5578;DHT22;2811;51.900;10.734;2023-03-14T09:32:43;14.10;99.90
5578;DHT22;2811;51.900;10.734;2023-03-14T09:35:11;13.80;99.90
5578;DHT22;2811;51.900;10.734;2023-03-14T09:37:38;13.90;99.90
5578;DHT22;2811;51.900;10.734;2023-03-14T09:40:06;13.80;99.90
5578;DHT22;2811;51.900;10.734;2023-03-14T09:42:37;13.70;99.90
5578;DHT22;2811;51.900;10.734;2023-03-14T09:45:10;13.50;99.90
5578;DHT22;2811;51.900;10.734;2023-03-14T09:47:38;13.20;99.90
5578;DHT22;2811;51.900;10.734;2023-03-14T09:50:12;13.20;99.90
5578;DHT22;2811;51.900;10.734;2023-03-14T09:52:41;13.10;99.90
5578;DHT22;2811;51.900;10.734;2023-03-14T09:55:11;13.00;99.90
5578;DHT22;2811;51.900;10.734;2023-03-14T09:57:39;13.10;99.90
5578;DHT22;2811;51.900;10.734;2023-03-14T10:00:15;13.00;99.90
5578;DHT22;2811;51.900;10.734;2023-03-14T10:02:45;13.10;99.90
5578;DHT22;2811;51.900;10.734;2023-03-14T10:05:16;13.50;99.90
5578;DHT22;2811;51.900;10.734;2023-03-14T10:07:43;13.70;99.90
5578;DHT22;2811;51.900;10.734;2023-03-14T10:10:12;13.80;99.90
5578;DHT22;2811;51.900;10.734;2023-03-14T10:12:39;14.10;99.90
5578;DHT22;2811;51.900;10.734;2023-03-14T10:15:09;14.40;99.90
5578;DHT22;2811;51.900;10.734;2023-03-14T10:17:41;14.60;99.90
5578;DHT22;2811;51.900;10.734;2023-03-14T10:20:27;15.00;99.90
5578;DHT22;2811;51.900;10.734;2023-03-14T10:22:58;15.00;99.90
5578;DHT22;2811;51.900;10.734;2023-03-14T10:25:27;15.00;99.90
5578;DHT22;2811;51.900;10.734;2023-03-14T10:27:54;14.80;99.90
5578;DHT22;2811;51.900;10.734;2023-03-14T10:30:34;14.60;99.90
5578;DHT22;2811;51.900;10.734;2023-03-14T10:33:10;14.60;99.90
5578;DHT22;2811;51.900;10.734;2023-03-14T10:35:39;14.50;99.90
5578;DHT22;2811;51.900;10.734;2023-03-14T10:38:13;14.30;99.90
5578;DHT22;2811;51.900;10.734;2023-03-14T10:40:41;14.50;99.90
5578;DHT22;2811;51.900;10.734;2023-03-14T10:43:16;14.40;99.90
5578;DHT22;2811;51.900;10.734;2023-03-14T10:45:44;14.40;99.90
5578;DHT22;2811;51.900;10.734;2023-03-14T10:48:20;14.30;99.90
5578;DHT22;2811;51.900;10.734;2023-03-14T10:50:56;14.50;99.90
5578;DHT22;2811;51.900;10.734;2023-03-14T10:53:24;14.30;99.90
5578;DHT22;2811;51.900;10.734;2023-03-14T10:55:52;14.10;99.90
5578;DHT22;2811;51.900;10.734;2023-03-14T10:58:23;14.00;99.90
5578;DHT22;2811;51.900;10.734;2023-03-14T11:00:59;14.10;99.90
5578;DHT22;2811;51.900;10.734;2023-03-14T11:03:28;14.50;99.90
5578;DHT22;2811;51.900;10.734;2023-03-14T11:06:00;14.80;99.90
5578;DHT22;2811;51.900;10.734;2023-03-14T11:08:33;14.70;99.90
5578;DHT22;2811;51.900;10.734;2023-03-14T11:11:11;14.80;99.90
5578;DHT22;2811;51.900;10.734;2023-03-14T11:13:44;14.80;99.90
5578;DHT22;2811;51.900;10.734;2023-03-14T11:16:22;14.70;99.90
5578;DHT22;2811;51.900;10.734;2023-03-14T11:19:07;14.80;99.90
5578;DHT22;2811;51.900;10.734;2023-03-14T11:21:46;14.80;99.90
5578;DHT22;2811;51.900;10.734;2023-03-14T11:24:29;14.20;99.90
5578;DHT22;2811;51.900;10.734;2023-03-14T11:27:00;14.40;99.90
5578;DHT22;2811;51.900;10.734;2023-03-14T11:29:36;14.80;99.90
5578;DHT22;2811;51.900;10.734;2023-03-14T11:32:12;15.20;99.90
5578;DHT22;2811;51.900;10.734;2023-03-14T11:34:43;15.60;99.90
5578;DHT22;2811;51.900;10.734;2023-03-14T11:37:16;15.90;99.90
5578;DHT22;2811;51.900;10.734;2023-03-14T11:39:54;15.60;99.90
5578;DHT22;2811;51.900;10.734;2023-03-14T11:42:22;15.00;99.90
5578;DHT22;2811;51.900;10.734;2023-03-14T11:44:50;15.00;99.90
5578;DHT22;2811;51.900;10.734;2023-03-14T11:47:20;15.20;99.90
5578;DHT22;2811;51.900;10.734;2023-03-14T11:49:51;15.50;99.90
5578;DHT22;2811;51.900;10.734;2023-03-14T11:52:25;15.40;99.90
5578;DHT22;2811;51.900;10.734;2023-03-14T11:54:57;15.30;99.90
5578;DHT22;2811;51.900;10.734;2023-03-14T11:57:25;15.10;99.90
5578;DHT22;2811;51.900;10.734;2023-03-14T11:59:55;15.60;99.90
5578;DHT22;2811;51.900;10.734;2023-03-14T12:02:28;15.50;99.90
5578;DHT22;2811;51.900;10.734;2023-03-14T12:05:28;15.30;99.90
5578;DHT22;2811;51.900;10.734;2023-03-14T12:11:04;15.20;99.90
5578;DHT22;2811;51.900;10.734;2023-03-14T12:13:38;15.40;99.90
5578;DHT22;2811;51.900;10.734;2023-03-14T12:16:07;15.80;99.90
5578;DHT22;2811;51.900;10.734;2023-03-14T12:18:37;15.80;99.90
5578;DHT22;2811;51.900;10.734;2023-03-14T12:21:07;15.70;99.90
5578;DHT22;2811;51.900;10.734;2023-03-14T12:23:41;15.50;99.90
5578;DHT22;2811;51.900;10.734;2023-03-14T12:26:15;15.30;99.90
5578;DHT22;2811;51.900;10.734;2023-03-14T12:28:44;15.30;99.90
5578;DHT22;2811;51.900;10.734;2023-03-14T12:31:36;15.20;99.90
5578;DHT22;2811;51.900;10.734;2023-03-14T12:34:04;15.10;99.90
5578;DHT22;2811;51.900;10.734;2023-03-14T12:37:04;15.40;99.90
5578;DHT22;2811;51.900;10.734;2023-03-14T12:39:39;15.30;99.90
5578;DHT22;2811;51.900;10.734;2023-03-14T12:42:12;15.30;99.90
5578;DHT22;2811;51.900;10.734;2023-03-14T12:44:44;15.10;99.90
5578;DHT22;2811;51.900;10.734;2023-03-14T12:47:43;14.80;99.90
5578;DHT22;2811;51.900;10.734;2023-03-14T12:50:16;14.80;99.90
5578;DHT22;2811;51.900;10.734;2023-03-14T12:52:54;14.80;99.90
5578;DHT22;2811;51.900;10.734;2023-03-14T12:55:33;14.70;99.90
5578;DHT22;2811;51.900;10.734;2023-03-14T13:00:32;13.40;99.90
5578;DHT22;2811;51.900;10.734;2023-03-14T13:03:02;10.90;99.90
5578;DHT22;2811;51.900;10.734;2023-03-14T13:05:51;9.50;99.90
5578;DHT22;2811;51.900;10.734;2023-03-14T13:08:34;8.70;99.90
5578;DHT22;2811;51.900;10.734;2023-03-14T13:11:04;8.50;99.90
5578;DHT22;2811;51.900;10.734;2023-03-14T13:13:34;8.40;99.90
5578;DHT22;2811;51.900;10.734;2023-03-14T13:16:01;8.50;99.90
5578;DHT22;2811;51.900;10.734;2023-03-14T13:18:33;8.40;99.90
5578;DHT22;2811;51.900;10.734;2023-03-14T13:21:03;8.40;99.90
5578;DHT22;2811;51.900;10.734;2023-03-14T13:23:33;8.20;99.90
5578;DHT22;2811;51.900;10.734;2023-03-14T13:26:01;8.00;99.90
5578;DHT22;2811;51.900;10.734;2023-03-14T13:28:30;7.90;99.90
5578;DHT22;2811;51.900;10.734;2023-03-14T13:30:58;7.80;99.90
5578;DHT22;2811;51.900;10.734;2023-03-14T13:33:26;7.50;99.90
5578;DHT22;2811;51.900;10.734;2023-03-14T13:35:57;7.40;99.90
5578;DHT22;2811;51.900;10.734;2023-03-14T13:38:26;7.20;99.90
5578;DHT22;2811;51.900;10.734;2023-03-14T13:40:54;7.10;99.90
5578;DHT22;2811;51.900;10.734;2023-03-14T13:43:29;6.90;99.90
5578;DHT22;2811;51.900;10.734;2023-03-14T13:46:03;6.80;99.90
5578;DHT22;2811;51.900;10.734;2023-03-14T13:48:32;6.70;99.90
5578;DHT22;2811;51.900;10.734;2023-03-14T13:51:02;6.70;99.90
5578;DHT22;2811;51.900;10.734;2023-03-14T13:53:30;6.60;99.90
5578;DHT22;2811;51.900;10.734;2023-03-14T13:56:01;6.60;99.90
5578;DHT22;2811;51.900;10.734;2023-03-14T13:58:30;6.60;99.90
5578;DHT22;2811;51.900;10.734;2023-03-14T14:01:13;6.40;99.90
5578;DHT22;2811;51.900;10.734;2023-03-14T14:03:42;6.10;99.90
5578;DHT22;2811;51.900;10.734;2023-03-14T14:06:16;5.80;99.90
5578;DHT22;2811;51.900;10.734;2023-03-14T14:08:45;5.60;99.90
5578;DHT22;2811;51.900;10.734;2023-03-14T14:11:19;5.50;99.90
5578;DHT22;2811;51.900;10.734;2023-03-14T14:13:49;5.40;99.90
5578;DHT22;2811;51.900;10.734;2023-03-14T14:16:17;5.30;99.90
5578;DHT22;2811;51.900;10.734;2023-03-14T14:18:46;5.30;99.90
5578;DHT22;2811;51.900;10.734;2023-03-14T14:21:13;5.10;99.90
5578;DHT22;2811;51.900;10.734;2023-03-14T14:23:40;5.10;99.90
5578;DHT22;2811;51.900;10.734;2023-03-14T14:26:07;5.00;99.90
5578;DHT22;2811;51.900;10.734;2023-03-14T14:28:35;5.10;99.90
5578;DHT22;2811;51.900;10.734;2023-03-14T14:31:18;5.10;99.90
5578;DHT22;2811;51.900;10.734;2023-03-14T14:33:53;5.10;99.90
5578;DHT22;2811;51.900;10.734;2023-03-14T14:36:22;5.00;99.90
5578;DHT22;2811;51.900;10.734;2023-03-14T14:38:50;5.10;99.90
5578;DHT22;2811;51.900;10.734;2023-03-14T14:41:17;5.00;99.90
5578;DHT22;2811;51.900;10.734;2023-03-14T14:43:44;5.00;99.90
5578;DHT22;2811;51.900;10.734;2023-03-14T14:46:17;5.00;99.90
5578;DHT22;2811;51.900;10.734;2023-03-14T14:48:44;4.90;99.90
5578;DHT22;2811;51.900;10.734;2023-03-14T14:51:22;4.90;99.90
5578;DHT22;2811;51.900;10.734;2023-03-14T14:53:49;5.00;99.90
5578;DHT22;2811;51.900;10.734;2023-03-14T14:56:18;4.90;99.90
5578;DHT22;2811;51.900;10.734;2023-03-14T14:58:48;4.90;99.90
5578;DHT22;2811;51.900;10.734;2023-03-14T15:01:17;4.90;99.90
5578;DHT22;2811;51.900;10.734;2023-03-14T15:03:46;4.90;99.90
5578;DHT22;2811;51.900;10.734;2023-03-14T15:06:14;4.90;99.90
5578;DHT22;2811;51.900;10.734;2023-03-14T15:08:43;5.00;99.90
5578;DHT22;2811;51.900;10.734;2023-03-14T15:11:15;5.00;99.90
5578;DHT22;2811;51.900;10.734;2023-03-14T15:13:42;5.00;99.90
5578;DHT22;2811;51.900;10.734;2023-03-14T15:16:10;5.10;99.90
5578;DHT22;2811;51.900;10.734;2023-03-14T15:18:39;5.30;99.90
5578;DHT22;2811;51.900;10.734;2023-03-14T15:21:06;5.20;99.90
5578;DHT22;2811;51.900;10.734;2023-03-14T15:23:32;5.20;99.90
5578;DHT22;2811;51.900;10.734;2023-03-14T15:25:59;5.20;99.90
5578;DHT22;2811;51.900;10.734;2023-03-14T15:28:27;5.20;99.90
5578;DHT22;2811;51.900;10.734;2023-03-14T15:30:56;5.20;99.90
5578;DHT22;2811;51.900;10.734;2023-03-14T15:33:23;5.20;99.90
5578;DHT22;2811;51.900;10.734;2023-03-14T15:35:52;5.30;99.90
5578;DHT22;2811;51.900;10.734;2023-03-14T15:38:20;5.40;99.90
5578;DHT22;2811;51.900;10.734;2023-03-14T15:40:48;5.40;99.90
5578;DHT22;2811;51.900;10.734;2023-03-14T15:43:15;5.30;99.90
5578;DHT22;2811;51.900;10.734;2023-03-14T15:45:42;5.10;99.90
5578;DHT22;2811;51.900;10.734;2023-03-14T15:48:18;4.70;99.90
5578;DHT22;2811;51.900;10.734;2023-03-14T15:50:46;4.70;99.90
5578;DHT22;2811;51.900;10.734;2023-03-14T15:53:14;4.60;99.90
5578;DHT22;2811;51.900;10.734;2023-03-14T15:55:41;4.60;99.90
5578;DHT22;2811;51.900;10.734;2023-03-14T15:58:10;4.60;99.90
5578;DHT22;2811;51.900;10.734;2023-03-14T16:00:41;4.70;99.90
5578;DHT22;2811;51.900;10.734;2023-03-14T16:03:07;4.80;99.90
5578;DHT22;2811;51.900;10.734;2023-03-14T16:05:35;4.80;99.90
5578;DHT22;2811;51.900;10.734;2023-03-14T16:08:02;4.80;99.90
5578;DHT22;2811;51.900;10.734;2023-03-14T16:10:31;4.90;99.90